Time;durP1;ratioP1;P1;durP2;ratioP2;P2;SDS_P1;SDS_P2;PMS_P1;PMS_P2;Temp;Humidity;BMP_temperature;BMP_pressure;BME280_temperature;BME280_humidity;BME280_pressure;Samples;Min_cycle;Max_cycle;Signal;HPM_P1;HPM_P2
2023/11/26 00:00:10;;;;;;;13.70;4.73;;;4.80;99.90;;;;;;5039165;28;20591;-54
2023/11/26 00:02:39;;;;;;;18.93;5.20;;;4.90;99.90;;;;;;5048908;28;20219;-55
2023/11/26 00:05:08;;;;;;;18.47;5.00;;;4.80;99.90;;;;;;5049732;28;20347;-54
2023/11/26 00:07:37;;;;;;;22.47;5.63;;;4.80;99.90;;;;;;5046865;28;20193;-55
2023/11/26 00:10:09;;;;;;;24.60;5.10;;;4.80;99.90;;;;;;5045961;28;20340;-54
2023/11/26 00:12:37;;;;;;;16.90;5.57;;;4.80;99.90;;;;;;5044647;28;20303;-55
2023/11/26 00:15:08;;;;;;;20.37;5.43;;;4.80;99.90;;;;;;5050312;28;20227;-53
2023/11/26 00:17:36;;;;;;;16.43;4.77;;;4.80;99.90;;;;;;5044004;28;20225;-54
2023/11/26 00:20:06;;;;;;;16.70;5.47;;;4.80;99.90;;;;;;5045764;28;20282;-54
2023/11/26 00:22:35;;;;;;;13.07;5.73;;;4.80;99.90;;;;;;5043595;28;20189;-55
2023/11/26 00:25:07;;;;;;;15.10;5.23;;;4.80;99.90;;;;;;5044463;28;20228;-55
2023/11/26 00:27:35;;;;;;;14.97;6.07;;;4.80;99.90;;;;;;5045670;28;20224;-55
2023/11/26 00:30:05;;;;;;;13.53;5.70;;;4.90;99.90;;;;;;5045795;28;20224;-53
2023/11/26 00:32:33;;;;;;;14.70;5.57;;;4.90;99.90;;;;;;5045933;28;20216;-53
2023/11/26 00:35:03;;;;;;;17.73;5.20;;;4.90;99.90;;;;;;5045452;28;20755;-55
2023/11/26 00:37:32;;;;;;;18.23;5.27;;;4.90;99.90;;;;;;5047417;28;20209;-59
2023/11/26 00:40:01;;;;;;;15.20;5.80;;;4.90;99.90;;;;;;5047478;28;20315;-54
2023/11/26 00:42:30;;;;;;;15.33;5.23;;;4.90;99.90;;;;;;5043176;28;20217;-54
2023/11/26 00:44:59;;;;;;;15.30;5.63;;;4.90;99.90;;;;;;5045644;28;20726;-55
2023/11/26 00:47:27;;;;;;;15.73;5.07;;;4.90;99.90;;;;;;5048285;28;20774;-55
2023/11/26 00:50:00;;;;;;;18.33;5.30;;;4.90;99.90;;;;;;5040703;28;20639;-51
2023/11/26 00:52:31;;;;;;;19.50;5.47;;;4.90;99.90;;;;;;5044614;28;20196;-54
2023/11/26 00:54:59;;;;;;;15.53;5.60;;;4.90;99.90;;;;;;5043478;28;20213;-55
2023/11/26 00:57:28;;;;;;;14.63;5.47;;;4.90;99.90;;;;;;5050366;28;20307;-54
2023/11/26 00:59:57;;;;;;;12.73;5.43;;;5.00;99.90;;;;;;5038218;28;20243;-50
2023/11/26 01:02:29;;;;;;;19.90;5.63;;;4.90;99.90;;;;;;5047694;28;20228;-51
2023/11/26 01:04:58;;;;;;;17.73;5.33;;;4.90;99.90;;;;;;5038156;28;20198;-54
2023/11/26 01:07:30;;;;;;;16.93;5.57;;;4.90;99.90;;;;;;5043534;28;20271;-51
2023/11/26 01:09:58;;;;;;;19.03;5.57;;;4.80;99.90;;;;;;5044538;28;20239;-53
2023/11/26 01:12:27;;;;;;;12.30;4.70;;;4.80;99.90;;;;;;5040237;28;20224;-52
2023/11/26 01:14:57;;;;;;;16.40;4.77;;;4.80;99.90;;;;;;5046136;28;20336;-54
2023/11/26 01:17:25;;;;;;;18.77;5.13;;;4.90;99.90;;;;;;5045672;28;20240;-52
2023/11/26 01:19:54;;;;;;;15.07;5.00;;;4.90;99.90;;;;;;5042543;28;20288;-52
2023/11/26 01:22:24;;;;;;;9.50;5.47;;;4.90;99.90;;;;;;5044831;28;20267;-54
2023/11/26 01:24:53;;;;;;;12.27;4.83;;;4.80;99.90;;;;;;5044665;28;20276;-53
2023/11/26 01:27:21;;;;;;;17.93;5.53;;;4.90;99.90;;;;;;5045545;28;20223;-54
2023/11/26 01:29:49;;;;;;;18.37;6.03;;;4.90;99.90;;;;;;5043730;28;20231;-51
2023/11/26 01:32:19;;;;;;;16.33;6.10;;;4.90;99.90;;;;;;5043755;28;20669;-53
2023/11/26 01:34:48;;;;;;;16.17;6.10;;;4.90;99.90;;;;;;5040709;28;20217;-50
2023/11/26 01:37:16;;;;;;;20.23;6.00;;;4.90;99.90;;;;;;5044164;28;20227;-51
2023/11/26 01:39:45;;;;;;;20.40;5.90;;;5.00;99.90;;;;;;5044347;28;20229;-53
2023/11/26 01:42:13;;;;;;;19.07;6.70;;;5.00;99.90;;;;;;5045408;28;20220;-54
2023/11/26 01:44:41;;;;;;;17.10;5.90;;;5.00;99.90;;;;;;5050207;28;20225;-53
2023/11/26 01:47:10;;;;;;;16.30;6.03;;;5.10;99.90;;;;;;5041778;28;20228;-54
2023/11/26 01:49:40;;;;;;;20.87;6.67;;;5.10;99.90;;;;;;5046568;28;20189;-54
2023/11/26 01:52:11;;;;;;;18.40;6.83;;;5.10;99.90;;;;;;5045542;28;20221;-53
2023/11/26 01:54:43;;;;;;;18.43;6.17;;;5.20;99.90;;;;;;5046716;28;20671;-52
2023/11/26 01:57:14;;;;;;;27.37;6.73;;;5.20;99.90;;;;;;5046098;28;20228;-52
2023/11/26 01:59:43;;;;;;;18.70;7.00;;;5.20;99.90;;;;;;5047749;28;20711;-55
2023/11/26 02:02:11;;;;;;;18.93;7.33;;;5.20;99.90;;;;;;5044875;28;20746;-52
2023/11/26 02:04:42;;;;;;;16.50;6.50;;;5.20;99.90;;;;;;5047518;28;20220;-52
2023/11/26 02:07:10;;;;;;;19.57;6.97;;;5.20;99.90;;;;;;5045085;28;20235;-53
2023/11/26 02:09:39;;;;;;;18.33;6.70;;;5.20;99.90;;;;;;5044264;28;20561;-52
2023/11/26 02:12:10;;;;;;;17.43;7.17;;;5.20;99.90;;;;;;5037973;28;20227;-53
2023/11/26 02:14:39;;;;;;;21.10;6.97;;;5.20;99.90;;;;;;5046907;28;20220;-54
2023/11/26 02:17:10;;;;;;;20.53;7.13;;;5.30;99.90;;;;;;5044322;28;20228;-55
2023/11/26 02:19:41;;;;;;;17.50;7.10;;;5.30;99.90;;;;;;5041825;28;20659;-55
2023/11/26 02:22:09;;;;;;;19.77;7.00;;;5.40;99.90;;;;;;5046030;28;20569;-53
2023/11/26 02:24:42;;;;;;;19.40;6.80;;;5.40;99.90;;;;;;5045784;28;20216;-54
2023/11/26 02:27:10;;;;;;;14.80;6.60;;;5.50;99.90;;;;;;5045431;28;20654;-54
2023/11/26 02:29:40;;;;;;;19.17;6.63;;;5.50;99.90;;;;;;5041958;28;20225;-53
2023/11/26 02:32:09;;;;;;;16.07;6.47;;;5.60;99.90;;;;;;5050311;28;20228;-53
2023/11/26 02:34:38;;;;;;;18.93;7.77;;;5.60;99.90;;;;;;5040499;28;20551;-54
2023/11/26 02:37:06;;;;;;;20.73;7.03;;;5.60;99.90;;;;;;5047769;28;20303;-55
2023/11/26 02:39:34;;;;;;;21.73;6.90;;;5.60;99.90;;;;;;5037871;28;20232;-55
2023/11/26 02:42:04;;;;;;;18.53;7.13;;;5.60;99.90;;;;;;5037860;28;20338;-53
2023/11/26 02:44:33;;;;;;;18.63;7.53;;;5.60;99.90;;;;;;5046051;28;20225;-53
2023/11/26 02:47:03;;;;;;;25.57;7.33;;;5.60;99.90;;;;;;5036222;28;20209;-54
2023/11/26 02:49:32;;;;;;;24.33;8.03;;;5.60;99.90;;;;;;5042693;28;20276;-53
2023/11/26 02:52:00;;;;;;;28.47;7.87;;;5.60;99.90;;;;;;5048414;28;20829;-54
2023/11/26 02:54:27;;;;;;;20.30;7.97;;;5.60;99.90;;;;;;5039924;28;20586;-53
2023/11/26 02:56:56;;;;;;;22.40;8.13;;;5.60;99.90;;;;;;5038153;28;20629;-54
2023/11/26 02:59:25;;;;;;;26.10;7.10;;;5.60;99.90;;;;;;5046758;28;20228;-53
2023/11/26 03:01:58;;;;;;;20.47;7.57;;;5.60;99.90;;;;;;5048211;28;20203;-54
2023/11/26 03:04:26;;;;;;;18.53;7.73;;;5.60;99.90;;;;;;5041449;28;20541;-55
2023/11/26 03:06:57;;;;;;;16.57;7.03;;;5.60;99.90;;;;;;5045531;28;20308;-53
2023/11/26 03:12:53;;;;;;;17.97;7.10;;;5.50;99.90;;;;;;5048096;28;20610;-54
2023/11/26 03:15:14;;;;;;;13.10;6.50;;;5.50;99.90;;;;;;5049053;28;20224;-55
2023/11/26 03:17:42;;;;;;;20.10;6.70;;;5.50;99.90;;;;;;5045373;28;20217;-54
2023/11/26 03:20:16;;;;;;;16.67;6.63;;;5.50;99.90;;;;;;5045009;28;20259;-54
2023/11/26 03:22:44;;;;;;;23.93;6.53;;;5.60;99.90;;;;;;5044194;28;20215;-52
2023/11/26 03:25:13;;;;;;;21.13;6.07;;;5.60;99.90;;;;;;5049825;28;20532;-56
2023/11/26 03:27:41;;;;;;;14.23;6.00;;;5.60;99.90;;;;;;5046926;28;20718;-54
2023/11/26 03:30:12;;;;;;;11.70;5.40;;;5.60;99.90;;;;;;5048179;28;20228;-53
2023/11/26 03:32:41;;;;;;;10.80;5.70;;;5.60;99.90;;;;;;5043633;28;20702;-55
2023/11/26 03:35:10;;;;;;;12.93;6.00;;;5.70;99.90;;;;;;5046057;28;20691;-54
2023/11/26 03:37:40;;;;;;;16.83;5.50;;;5.60;99.90;;;;;;5046987;28;20192;-53
2023/11/26 03:40:10;;;;;;;10.13;4.80;;;5.60;99.90;;;;;;5045628;28;20221;-52
2023/11/26 03:42:39;;;;;;;13.10;4.77;;;5.60;99.90;;;;;;5040876;28;20217;-54
2023/11/26 03:45:08;;;;;;;13.47;5.23;;;5.60;99.90;;;;;;5050961;28;20244;-53
2023/11/26 03:47:38;;;;;;;21.77;4.70;;;5.60;99.90;;;;;;5045133;28;20223;-55
2023/11/26 03:50:09;;;;;;;17.77;4.50;;;5.60;99.90;;;;;;5050521;28;20224;-53
2023/11/26 03:52:39;;;;;;;12.63;4.47;;;5.70;99.90;;;;;;5043609;28;20196;-54
2023/11/26 03:55:08;;;;;;;11.33;4.60;;;5.60;99.90;;;;;;5041744;28;20221;-52
2023/11/26 03:57:37;;;;;;;12.13;4.63;;;5.60;99.90;;;;;;5049939;28;20227;-51
2023/11/26 04:00:08;;;;;;;11.57;4.20;;;5.60;99.90;;;;;;5043814;28;20224;-53
2023/11/26 04:02:38;;;;;;;5.93;4.50;;;5.70;99.90;;;;;;5046727;28;20624;-51
2023/11/26 04:05:09;;;;;;;9.43;4.20;;;5.70;99.90;;;;;;5045264;28;20232;-51
2023/11/26 04:07:38;;;;;;;11.40;3.70;;;5.70;99.90;;;;;;5048894;28;20221;-51
2023/11/26 04:10:09;;;;;;;11.37;4.17;;;5.70;99.90;;;;;;5047698;28;20223;-50
2023/11/26 04:12:37;;;;;;;11.53;3.70;;;5.70;99.90;;;;;;5050556;28;20235;-55
2023/11/26 04:15:08;;;;;;;9.90;3.97;;;5.70;99.90;;;;;;5044459;28;20271;-50
2023/11/26 04:17:38;;;;;;;8.40;3.70;;;5.70;99.90;;;;;;5043335;28;20274;-52
2023/11/26 04:20:08;;;;;;;11.87;3.70;;;5.70;99.90;;;;;;5049236;28;20232;-55
2023/11/26 04:22:37;;;;;;;14.23;4.20;;;5.70;99.90;;;;;;5047002;28;20204;-55
2023/11/26 04:25:06;;;;;;;10.47;4.10;;;5.70;99.90;;;;;;5039829;28;20720;-52
2023/11/26 04:27:34;;;;;;;13.87;4.43;;;5.80;99.90;;;;;;5043948;28;20705;-55
2023/11/26 04:30:04;;;;;;;8.00;4.40;;;5.80;99.90;;;;;;5043634;28;21129;-52
2023/11/26 04:32:33;;;;;;;13.07;4.63;;;5.80;99.90;;;;;;5043138;28;20257;-56
2023/11/26 04:35:03;;;;;;;12.73;5.33;;;5.80;99.90;;;;;;5045301;28;20553;-53
2023/11/26 04:37:35;;;;;;;17.63;5.57;;;5.80;99.90;;;;;;5046515;28;20243;-52
2023/11/26 04:40:05;;;;;;;12.80;5.27;;;5.80;99.90;;;;;;5045055;28;20247;-55
2023/11/26 04:42:33;;;;;;;11.83;6.00;;;5.80;99.90;;;;;;5044086;28;20217;-53
2023/11/26 04:45:02;;;;;;;15.97;6.53;;;5.80;99.90;;;;;;5047115;28;20216;-51
2023/11/26 04:47:30;;;;;;;18.03;6.53;;;5.80;99.90;;;;;;5045761;28;20229;-55
2023/11/26 04:49:59;;;;;;;13.93;7.03;;;5.80;99.90;;;;;;5050142;28;20190;-53
2023/11/26 04:52:29;;;;;;;11.23;6.83;;;5.80;99.90;;;;;;5051150;28;20268;-54
2023/11/26 04:54:57;;;;;;;20.97;6.83;;;5.80;99.90;;;;;;5044436;28;20739;-52
2023/11/26 04:57:25;;;;;;;15.97;7.17;;;5.80;99.90;;;;;;5045953;28;20239;-55
2023/11/26 04:59:53;;;;;;;17.20;7.53;;;5.80;99.90;;;;;;5044531;28;20216;-52
2023/11/26 05:02:21;;;;;;;18.10;7.50;;;5.80;99.90;;;;;;5041638;28;20228;-52
2023/11/26 05:04:51;;;;;;;14.63;6.93;;;5.90;99.90;;;;;;5045300;28;20200;-53
2023/11/26 05:07:19;;;;;;;18.63;7.70;;;5.90;99.90;;;;;;5049650;28;20188;-53
2023/11/26 05:09:49;;;;;;;18.23;8.77;;;5.90;99.90;;;;;;5043060;28;20588;-55
2023/11/26 05:12:17;;;;;;;18.90;7.93;;;5.90;99.90;;;;;;5046596;28;20229;-53
2023/11/26 05:14:45;;;;;;;15.97;8.03;;;5.90;99.90;;;;;;5040567;28;20217;-53
2023/11/26 05:17:14;;;;;;;18.97;8.83;;;5.80;99.90;;;;;;5046589;28;20281;-54
2023/11/26 05:19:45;;;;;;;31.90;9.70;;;5.80;99.90;;;;;;5043006;28;20195;-54
2023/11/26 05:22:13;;;;;;;21.00;9.13;;;5.80;99.90;;;;;;5042363;28;20252;-51
2023/11/26 05:24:41;;;;;;;20.40;9.90;;;5.80;99.90;;;;;;5043098;28;20570;-54
2023/11/26 05:27:11;;;;;;;17.23;9.60;;;5.70;99.90;;;;;;5042733;28;20220;-55
2023/11/26 05:29:39;;;;;;;22.60;10.60;;;5.70;99.90;;;;;;5042971;28;20236;-55
2023/11/26 05:32:07;;;;;;;18.70;10.60;;;5.60;99.90;;;;;;5044369;28;20641;-56
2023/11/26 05:34:36;;;;;;;20.27;10.23;;;5.60;99.90;;;;;;5042756;28;20523;-56
2023/11/26 05:37:04;;;;;;;24.97;11.87;;;5.60;99.90;;;;;;5048261;28;20252;-54
2023/11/26 05:39:33;;;;;;;23.13;11.33;;;5.60;99.90;;;;;;5041452;28;20319;-55
2023/11/26 05:42:01;;;;;;;26.90;12.90;;;5.60;99.90;;;;;;5043154;28;20232;-55
2023/11/26 05:44:31;;;;;;;25.03;12.80;;;5.60;99.90;;;;;;5045902;28;20209;-53
2023/11/26 05:46:58;;;;;;;24.03;11.93;;;5.60;99.90;;;;;;5044167;28;20655;-54
2023/11/26 05:49:27;;;;;;;24.03;12.00;;;5.60;99.90;;;;;;5045377;28;20193;-54
2023/11/26 05:51:58;;;;;;;21.67;11.93;;;5.70;99.90;;;;;;5046220;28;20247;-53
2023/11/26 05:54:26;;;;;;;20.37;11.83;;;5.70;99.90;;;;;;5041998;28;20617;-54
2023/11/26 05:56:54;;;;;;;27.97;11.90;;;5.70;99.90;;;;;;5047940;28;20220;-55
2023/11/26 05:59:23;;;;;;;25.53;11.97;;;5.70;99.90;;;;;;5044021;28;20221;-54
2023/11/26 06:01:51;;;;;;;26.33;13.30;;;5.70;99.90;;;;;;5048333;28;20204;-53
2023/11/26 06:04:19;;;;;;;33.13;13.10;;;5.70;99.90;;;;;;5042099;28;20221;-54
2023/11/26 06:06:47;;;;;;;26.37;13.50;;;5.70;99.90;;;;;;5046507;28;20224;-54
2023/11/26 06:09:16;;;;;;;30.35;15.73;;;5.70;99.90;;;;;;5039487;28;20770;-53
2023/11/26 06:11:44;;;;;;;35.77;14.30;;;5.70;99.90;;;;;;5045697;28;20244;-54
2023/11/26 06:14:13;;;;;;;33.80;14.30;;;5.70;99.90;;;;;;5044349;28;20225;-55
2023/11/26 06:16:42;;;;;;;31.03;13.10;;;5.70;99.90;;;;;;5045368;28;20231;-55
2023/11/26 06:19:12;;;;;;;32.00;14.40;;;5.70;99.90;;;;;;5056839;28;20563;-55
2023/11/26 06:21:40;;;;;;;28.73;14.13;;;5.70;99.90;;;;;;5040566;28;20228;-55
2023/11/26 06:24:09;;;;;;;25.47;12.87;;;5.60;99.90;;;;;;5045028;28;20251;-54
2023/11/26 06:26:40;;;;;;;29.30;12.83;;;5.60;99.90;;;;;;5044435;28;20217;-54
2023/11/26 06:29:11;;;;;;;19.10;12.93;;;5.60;99.90;;;;;;5048328;28;20226;-55
2023/11/26 06:31:39;;;;;;;26.40;12.97;;;5.60;99.90;;;;;;5044101;28;20319;-55
2023/11/26 06:34:08;;;;;;;23.30;12.70;;;5.60;99.90;;;;;;5044205;28;20567;-55
2023/11/26 06:36:37;;;;;;;22.93;12.53;;;5.60;99.90;;;;;;5044348;28;20220;-54
2023/11/26 06:39:06;;;;;;;20.90;12.33;;;5.60;99.90;;;;;;5046309;28;20232;-53
2023/11/26 06:41:38;;;;;;;25.33;12.00;;;5.60;99.90;;;;;;5051579;28;20228;-54
2023/11/26 06:44:07;;;;;;;23.17;11.63;;;5.60;99.90;;;;;;5050938;28;20232;-53
2023/11/26 06:46:35;;;;;;;25.83;12.50;;;5.70;99.90;;;;;;5050131;28;20219;-55
2023/11/26 06:49:04;;;;;;;26.50;11.67;;;5.60;99.90;;;;;;5050016;28;20738;-53
2023/11/26 06:51:32;;;;;;;26.10;11.93;;;5.60;99.90;;;;;;5052664;28;20687;-53
2023/11/26 06:54:02;;;;;;;21.30;12.23;;;5.60;99.90;;;;;;5044921;28;20221;-53
2023/11/26 06:56:30;;;;;;;29.33;11.93;;;5.70;99.90;;;;;;5042980;28;20217;-55
2023/11/26 06:59:00;;;;;;;26.30;11.97;;;5.60;99.90;;;;;;5049960;28;20203;-55
2023/11/26 07:01:28;;;;;;;22.33;11.60;;;5.60;99.90;;;;;;5049735;28;20783;-54
2023/11/26 07:03:56;;;;;;;26.20;11.90;;;5.60;99.90;;;;;;5044456;28;20545;-53
2023/11/26 07:06:25;;;;;;;28.63;11.67;;;5.60;99.90;;;;;;5047062;28;20691;-54
2023/11/26 07:08:53;;;;;;;23.47;11.80;;;5.60;99.90;;;;;;5046601;28;20212;-54
2023/11/26 07:11:24;;;;;;;23.73;11.43;;;5.60;99.90;;;;;;5054333;28;20228;-55
2023/11/26 07:13:52;;;;;;;23.53;11.20;;;5.60;99.90;;;;;;5045105;28;20202;-54
2023/11/26 07:16:22;;;;;;;20.60;10.83;;;5.60;99.90;;;;;;5044297;28;20208;-52
2023/11/26 07:18:51;;;;;;;22.27;11.47;;;5.60;99.90;;;;;;5044546;28;20334;-53
2023/11/26 07:21:19;;;;;;;29.60;12.00;;;5.60;99.90;;;;;;5046104;28;20234;-51
2023/11/26 07:23:48;;;;;;;27.30;11.20;;;5.60;99.90;;;;;;5047258;28;20236;-53
2023/11/26 07:26:20;;;;;;;23.93;11.43;;;5.60;99.90;;;;;;5049479;28;20224;-54
2023/11/26 07:28:51;;;;;;;24.50;11.27;;;5.60;99.90;;;;;;5047911;28;20250;-54
2023/11/26 07:31:20;;;;;;;26.67;12.10;;;5.60;99.90;;;;;;5046885;28;20609;-55
2023/11/26 07:33:49;;;;;;;28.07;11.77;;;5.60;99.90;;;;;;5048511;28;20209;-56
2023/11/26 07:36:22;;;;;;;24.90;11.80;;;5.60;99.90;;;;;;5049563;28;20679;-55
2023/11/26 07:38:52;;;;;;;29.83;13.23;;;5.60;99.90;;;;;;5047653;28;20227;-55
2023/11/26 07:41:21;;;;;;;26.50;12.67;;;5.60;99.90;;;;;;5045102;28;20227;-54
2023/11/26 07:43:51;;;;;;;26.53;12.37;;;5.60;99.90;;;;;;5045862;28;20288;-53
2023/11/26 07:46:21;;;;;;;23.87;11.90;;;5.60;99.90;;;;;;5047909;28;20197;-52
2023/11/26 07:48:49;;;;;;;35.83;13.90;;;5.60;99.90;;;;;;5050744;28;20232;-55
2023/11/26 07:51:18;;;;;;;33.60;16.07;;;5.60;99.90;;;;;;5046317;28;20759;-51
2023/11/26 07:53:47;;;;;;;28.27;12.30;;;5.60;99.90;;;;;;5046394;28;20274;-55
2023/11/26 07:56:16;;;;;;;22.47;10.70;;;5.60;99.90;;;;;;5049602;28;20587;-53
2023/11/26 07:58:45;;;;;;;21.90;10.17;;;5.60;99.90;;;;;;5049506;28;20197;-51
2023/11/26 08:01:15;;;;;;;26.90;10.27;;;5.60;99.90;;;;;;5049567;28;20297;-52
2023/11/26 08:03:44;;;;;;;17.70;10.17;;;5.60;99.90;;;;;;5044488;28;20225;-51
2023/11/26 08:06:13;;;;;;;18.17;9.00;;;5.60;99.90;;;;;;5042075;28;20223;-56
2023/11/26 08:08:43;;;;;;;16.53;10.00;;;5.60;99.90;;;;;;5045161;28;20307;-53
2023/11/26 08:11:12;;;;;;;26.13;10.90;;;5.60;99.90;;;;;;5048192;28;20229;-52
2023/11/26 08:13:41;;;;;;;21.50;10.20;;;5.60;99.90;;;;;;5045790;28;20197;-53
2023/11/26 08:16:13;;;;;;;20.17;9.30;;;5.60;99.90;;;;;;5048709;28;20245;-54
2023/11/26 08:18:43;;;;;;;23.00;9.40;;;5.60;99.90;;;;;;5044430;28;20241;-51
2023/11/26 08:21:12;;;;;;;28.10;9.63;;;5.60;99.90;;;;;;5046074;28;20221;-55
2023/11/26 08:23:43;;;;;;;23.77;9.60;;;5.70;99.90;;;;;;5049061;28;20266;-51
2023/11/26 08:26:15;;;;;;;20.10;8.80;;;5.70;99.90;;;;;;5048640;28;20324;-55
2023/11/26 08:28:44;;;;;;;17.97;9.10;;;5.70;99.90;;;;;;5044559;28;20220;-53
2023/11/26 08:31:13;;;;;;;17.83;8.20;;;5.70;99.90;;;;;;5042269;28;20221;-52
2023/11/26 08:33:42;;;;;;;22.33;8.87;;;5.80;99.90;;;;;;5044357;28;20220;-55
2023/11/26 08:36:15;;;;;;;22.47;8.67;;;5.80;99.90;;;;;;5045456;28;20312;-54
2023/11/26 08:38:46;;;;;;;17.87;8.77;;;5.80;99.90;;;;;;5045143;28;20224;-55
2023/11/26 08:41:20;;;;;;;22.37;8.00;;;5.90;99.90;;;;;;5043178;28;20221;-53
2023/11/26 08:43:50;;;;;;;21.53;8.20;;;5.90;99.90;;;;;;5041536;28;20193;-54
2023/11/26 08:46:22;;;;;;;20.10;8.17;;;5.90;99.90;;;;;;5041994;28;20228;-52
2023/11/26 08:48:52;;;;;;;19.47;8.70;;;6.00;99.90;;;;;;5039828;28;20217;-53
2023/11/26 08:51:21;;;;;;;13.27;7.37;;;6.00;99.90;;;;;;5043503;28;20232;-54
2023/11/26 08:53:50;;;;;;;16.93;8.17;;;6.10;99.90;;;;;;5042985;28;20607;-54
2023/11/26 08:56:18;;;;;;;20.30;7.77;;;6.10;99.90;;;;;;5038250;28;20223;-54
2023/11/26 08:58:47;;;;;;;25.73;8.97;;;6.20;99.90;;;;;;5044903;28;20591;-54
2023/11/26 09:01:15;;;;;;;21.47;7.90;;;6.20;99.90;;;;;;5042026;28;20186;-55
2023/11/26 09:03:43;;;;;;;19.30;7.93;;;6.30;99.90;;;;;;5041755;28;20216;-54
2023/11/26 09:06:13;;;;;;;19.90;7.50;;;6.30;99.90;;;;;;5038562;28;20221;-53
2023/11/26 09:08:41;;;;;;;18.63;7.90;;;6.30;99.90;;;;;;5040952;28;20229;-54
2023/11/26 09:11:12;;;;;;;21.63;8.07;;;6.40;99.90;;;;;;5033812;28;20671;-54
2023/11/26 09:13:40;;;;;;;14.13;7.53;;;6.40;99.90;;;;;;5038464;28;20197;-53
2023/11/26 09:16:09;;;;;;;17.47;8.73;;;6.40;99.90;;;;;;5038955;28;20223;-54
2023/11/26 09:18:37;;;;;;;14.37;7.60;;;6.50;99.90;;;;;;5043398;28;20212;-54
2023/11/26 09:21:06;;;;;;;22.33;8.03;;;6.50;99.90;;;;;;5041062;28;20231;-54
2023/11/26 09:23:36;;;;;;;18.67;8.00;;;6.50;99.90;;;;;;5034627;28;20237;-53
2023/11/26 09:26:04;;;;;;;19.17;8.10;;;6.60;99.90;;;;;;5039485;28;20342;-55
2023/11/26 09:28:32;;;;;;;19.43;7.50;;;6.60;99.90;;;;;;5042204;28;20205;-54
2023/11/26 09:31:03;;;;;;;18.23;7.43;;;6.60;99.90;;;;;;5032459;28;20228;-55
2023/11/26 09:33:32;;;;;;;15.67;6.97;;;6.60;99.90;;;;;;5039542;28;20328;-52
2023/11/26 09:36:00;;;;;;;18.47;7.80;;;6.60;99.90;;;;;;5040711;28;20270;-54
2023/11/26 09:38:29;;;;;;;12.77;6.90;;;6.60;99.90;;;;;;5037493;28;20221;-52
2023/11/26 09:40:58;;;;;;;15.70;6.57;;;6.60;99.90;;;;;;5040279;28;20197;-54
2023/11/26 09:43:27;;;;;;;13.73;6.83;;;6.60;99.90;;;;;;5042260;28;20193;-50
2023/11/26 09:45:56;;;;;;;19.53;7.43;;;6.50;99.90;;;;;;5047257;28;20230;-56
2023/11/26 09:48:24;;;;;;;15.43;6.10;;;6.50;99.90;;;;;;5037596;28;20671;-51
2023/11/26 09:50:54;;;;;;;16.27;7.20;;;6.60;99.90;;;;;;5038914;28;20225;-51
2023/11/26 09:53:23;;;;;;;13.87;7.17;;;6.60;99.90;;;;;;5042710;28;20236;-53
2023/11/26 09:55:54;;;;;;;14.27;6.47;;;6.70;99.90;;;;;;5036549;28;20284;-55
2023/11/26 09:58:23;;;;;;;16.97;6.93;;;6.80;99.90;;;;;;5036322;28;20683;-55
2023/11/26 10:00:51;;;;;;;13.13;6.53;;;6.80;99.90;;;;;;5041638;28;20221;-52
2023/11/26 10:03:20;;;;;;;20.47;6.90;;;6.90;99.90;;;;;;5044381;28;20248;-51
2023/11/26 10:05:48;;;;;;;11.73;6.23;;;6.90;99.90;;;;;;5038173;28;20232;-55
2023/11/26 10:08:31;;;;;;;16.33;6.83;;;7.00;99.90;;;;;;5039099;28;20233;-54
2023/11/26 10:10:59;;;;;;;18.87;6.67;;;7.00;99.90;;;;;;5044520;28;20193;-53
2023/11/26 10:13:39;;;;;;;14.17;7.23;;;7.00;99.90;;;;;;5043740;28;20244;-53
2023/11/26 10:16:09;;;;;;;18.63;6.80;;;7.00;99.90;;;;;;5032739;28;20724;-54
2023/11/26 10:18:41;;;;;;;19.57;6.60;;;7.00;99.90;;;;;;5034088;28;20699;-52
2023/11/26 10:21:10;;;;;;;16.63;7.10;;;7.00;99.90;;;;;;5042931;28;20328;-53
2023/11/26 10:23:40;;;;;;;18.90;7.30;;;7.00;99.90;;;;;;5038148;28;20221;-54
2023/11/26 10:26:19;;;;;;;21.03;7.23;;;7.00;99.90;;;;;;5037824;28;20229;-52
2023/11/26 10:29:03;;;;;;;14.93;6.93;;;7.10;99.90;;;;;;5038424;28;20222;-53
2023/11/26 10:31:32;;;;;;;16.70;7.50;;;7.10;99.90;;;;;;5041064;28;20289;-52
2023/11/26 10:34:12;;;;;;;13.37;6.93;;;7.10;99.90;;;;;;5038283;28;20902;-55
2023/11/26 10:36:41;;;;;;;20.23;7.57;;;7.10;99.90;;;;;;5038517;28;20228;-51
2023/11/26 10:39:11;;;;;;;16.37;7.63;;;7.20;99.90;;;;;;5038867;28;20218;-51
2023/11/26 10:41:40;;;;;;;18.60;7.10;;;7.30;99.90;;;;;;5042102;28;20571;-52
2023/11/26 10:44:12;;;;;;;14.07;7.50;;;7.30;99.90;;;;;;5040312;28;20568;-52
2023/11/26 10:46:44;;;;;;;16.43;7.27;;;7.30;99.90;;;;;;5039336;28;20200;-52
2023/11/26 10:49:16;;;;;;;17.80;7.17;;;7.30;99.90;;;;;;5041590;28;20220;-51
2023/11/26 10:51:49;;;;;;;27.57;8.10;;;7.20;99.90;;;;;;5035548;28;20336;-54
2023/11/26 10:54:27;;;;;;;17.30;8.07;;;7.30;99.90;;;;;;5039844;28;20232;-55
2023/11/26 10:57:01;;;;;;;15.33;7.27;;;7.30;99.90;;;;;;5040905;28;20270;-52
2023/11/26 10:59:37;;;;;;;19.53;7.53;;;7.40;99.90;;;;;;5044116;28;20212;-52
2023/11/26 11:02:07;;;;;;;13.40;7.00;;;7.40;99.90;;;;;;5044062;28;20235;-55
2023/11/26 11:04:39;;;;;;;20.27;7.47;;;7.40;99.90;;;;;;5035401;28;20284;-54
2023/11/26 11:07:08;;;;;;;20.27;7.57;;;7.50;99.90;;;;;;5034359;28;20233;-54
2023/11/26 11:09:57;;;;;;;15.37;6.90;;;7.50;99.90;;;;;;5040229;28;20223;-50
2023/11/26 11:12:27;;;;;;;16.97;7.37;;;7.50;99.90;;;;;;5040068;28;20267;-53
2023/11/26 11:15:00;;;;;;;14.63;6.93;;;7.50;99.90;;;;;;5044537;28;20260;-51
2023/11/26 11:17:30;;;;;;;23.27;6.93;;;7.50;99.90;;;;;;5040082;28;20225;-53
2023/11/26 11:19:59;;;;;;;16.83;6.93;;;7.50;99.90;;;;;;5041326;28;20203;-54
2023/11/26 11:22:39;;;;;;;18.40;6.80;;;7.60;99.90;;;;;;5043192;28;20296;-54
2023/11/26 11:25:09;;;;;;;20.90;7.33;;;7.60;99.90;;;;;;5046673;28;20221;-50
2023/11/26 11:27:51;;;;;;;12.60;6.47;;;7.60;99.90;;;;;;5042468;28;20718;-55
2023/11/26 11:30:55;;;;;;;14.03;6.67;;;7.60;99.90;;;;;;5040959;28;20224;-53
2023/11/26 11:33:23;;;;;;;24.53;7.37;;;7.70;99.90;;;;;;5046392;28;20220;-56
2023/11/26 11:35:52;;;;;;;19.40;7.63;;;7.70;99.90;;;;;;5042011;28;20813;-53
2023/11/26 11:38:21;;;;;;;23.60;7.10;;;7.80;99.90;;;;;;5048383;28;20587;-52
2023/11/26 11:41:11;;;;;;;15.10;6.93;;;7.80;99.90;;;;;;5050274;28;20197;-53
2023/11/26 11:43:40;;;;;;;19.47;6.80;;;7.80;99.90;;;;;;5047239;28;20219;-52
2023/11/26 11:46:47;;;;;;;14.63;6.53;;;7.80;99.90;;;;;;5047919;28;20299;-53
2023/11/26 11:49:19;;;;;;;19.20;6.90;;;7.80;99.90;;;;;;5046293;28;20229;-53
2023/11/26 11:51:47;;;;;;;10.83;6.13;;;7.70;99.90;;;;;;5043816;28;20766;-53
2023/11/26 11:54:49;;;;;;;20.63;7.07;;;7.80;99.90;;;;;;5041594;28;20224;-53
2023/11/26 11:57:23;;;;;;;16.33;6.57;;;7.90;99.90;;;;;;5044848;28;20255;-53
2023/11/26 11:59:52;;;;;;;14.63;6.73;;;7.90;99.90;;;;;;5044332;28;20227;-53
2023/11/26 12:02:23;;;;;;;14.27;6.60;;;7.90;99.90;;;;;;5046182;28;20654;-53
2023/11/26 12:04:53;;;;;;;20.60;6.77;;;7.90;99.90;;;;;;5037187;28;20192;-53
2023/11/26 12:07:31;;;;;;;17.00;6.10;;;7.90;99.90;;;;;;5045036;28;20244;-50
2023/11/26 12:10:01;;;;;;;17.07;6.53;;;7.90;99.90;;;;;;5039347;28;20234;-55
2023/11/26 12:12:30;;;;;;;15.60;5.73;;;7.90;99.90;;;;;;5038408;28;20303;-53
2023/11/26 12:15:09;;;;;;;20.57;6.33;;;7.90;99.90;;;;;;5043452;28;20266;-56
2023/11/26 12:17:47;;;;;;;14.50;6.27;;;8.00;99.90;;;;;;5044945;28;20235;-55
2023/11/26 12:20:19;;;;;;;12.90;6.23;;;8.00;99.90;;;;;;5048244;28;20208;-55
2023/11/26 12:22:51;;;;;;;18.27;6.47;;;8.00;99.90;;;;;;5044933;28;20208;-53
2023/11/26 12:25:21;;;;;;;19.17;6.70;;;8.00;99.90;;;;;;5042797;28;20217;-54
2023/11/26 12:28:01;;;;;;;16.97;5.83;;;8.00;99.90;;;;;;5045743;28;20224;-55
2023/11/26 12:30:30;;;;;;;15.03;6.13;;;8.00;99.90;;;;;;5041310;28;20227;-54
2023/11/26 12:33:01;;;;;;;17.17;6.23;;;8.00;99.90;;;;;;5044870;28;20328;-53
2023/11/26 12:35:30;;;;;;;17.87;6.40;;;8.00;99.90;;;;;;5045417;28;20232;-54
2023/11/26 12:38:00;;;;;;;16.57;6.53;;;7.90;99.90;;;;;;5044858;28;20556;-55
2023/11/26 12:40:30;;;;;;;18.53;6.30;;;7.90;99.90;;;;;;5039864;28;20199;-55
2023/11/26 12:42:58;;;;;;;16.23;6.27;;;7.90;99.90;;;;;;5043144;28;20236;-55
2023/11/26 12:45:27;;;;;;;14.13;6.60;;;7.90;99.90;;;;;;5046977;28;20649;-53
2023/11/26 12:47:56;;;;;;;18.77;6.07;;;7.80;99.90;;;;;;5047419;28;20718;-54
2023/11/26 12:50:39;;;;;;;19.27;6.97;;;7.80;99.90;;;;;;5044464;28;20224;-51
2023/11/26 12:53:11;;;;;;;16.80;6.43;;;7.80;99.90;;;;;;5044287;28;21291;-54
2023/11/26 12:55:45;;;;;;;15.13;6.23;;;7.80;99.90;;;;;;5039457;28;20192;-55
2023/11/26 12:58:19;;;;;;;14.33;6.37;;;7.70;99.90;;;;;;5039381;28;20224;-56
2023/11/26 13:00:48;;;;;;;16.83;6.97;;;7.70;99.90;;;;;;5044483;28;20220;-54
2023/11/26 13:03:18;;;;;;;16.73;7.13;;;7.80;99.90;;;;;;5043288;28;20263;-52